Southern Illinois Airport Carbondale,Murphysboro US
ICAO: KMDH
IATA: MDH
Category: Medium
Scheduled Services: No

Elevation: 411 ft
TransAlt. 18000 ft.

Airport Communications:
ATIS:119.85
KANSAS CITY CNTR:125.3
CTAF:125.35
GND:121.8
CARBONDALE TWR:125.35
UNICOM:122.95

KMDH Zoom In..

Runways:

(A) RW 06 length 4163 ft width 100 ft
---- / hdg 62

(B) RW 18L length 6506 ft width 100 ft
ILS 110.90 / hdg 182

(C) RW 18R length 3498 ft width 60 ft
---- / hdg 182

(D) RW 24 length 4163 ft width 100 ft
---- / hdg 242

(E) RW 36L length 3498 ft width 60 ft
---- / hdg 2

(F) RW 36R length 6506 ft width 100 ft
---- / hdg 2

Location; KMDH
Day. 11 / Time. 20.52 Zulu
* Altimeter: 29.91
* Temperature: 33° c. 91.4°f.
* Wind from: 210° Speed 09 kn.
Dewpoint: 21° c.
Visibility: 10 Statute Miles.
Clouds: Clear (automated report).

KMDH 112052Z 21009KT 10SM CLR 33/21 A2991 RMK AO2 SLP125 T03330206 58019

Going to: --> -->


Wind From 210°
Speed 09 kn.

 
 
jpsmedia worldairports.se 2020   terms of use